sensor_id;sensor_type;location;lat;lon;timestamp;temperature;humidity
17415;DHT22;8825;48.086;16.426;2024-03-08T00:01:45;6.60;67.40
17415;DHT22;8825;48.086;16.426;2024-03-08T00:04:13;6.50;67.40
17415;DHT22;8825;48.086;16.426;2024-03-08T00:06:42;6.50;67.50
17415;DHT22;8825;48.086;16.426;2024-03-08T00:09:11;6.50;67.50
17415;DHT22;8825;48.086;16.426;2024-03-08T00:11:39;6.60;67.60
17415;DHT22;8825;48.086;16.426;2024-03-08T00:14:06;6.60;67.60
17415;DHT22;8825;48.086;16.426;2024-03-08T00:16:34;6.60;67.60
17415;DHT22;8825;48.086;16.426;2024-03-08T00:19:01;6.60;67.70
17415;DHT22;8825;48.086;16.426;2024-03-08T00:21:29;6.60;67.80
17415;DHT22;8825;48.086;16.426;2024-03-08T00:23:57;6.60;67.90
17415;DHT22;8825;48.086;16.426;2024-03-08T00:26:25;6.60;68.00
17415;DHT22;8825;48.086;16.426;2024-03-08T00:28:53;6.70;68.10
17415;DHT22;8825;48.086;16.426;2024-03-08T00:31:20;6.60;68.20
17415;DHT22;8825;48.086;16.426;2024-03-08T00:33:48;6.60;68.30
17415;DHT22;8825;48.086;16.426;2024-03-08T00:36:15;6.60;68.40
17415;DHT22;8825;48.086;16.426;2024-03-08T00:38:43;6.70;68.40
17415;DHT22;8825;48.086;16.426;2024-03-08T00:41:10;6.70;68.60
17415;DHT22;8825;48.086;16.426;2024-03-08T00:43:39;6.70;68.60
17415;DHT22;8825;48.086;16.426;2024-03-08T00:46:06;6.70;68.60
17415;DHT22;8825;48.086;16.426;2024-03-08T00:48:34;6.60;68.50
17415;DHT22;8825;48.086;16.426;2024-03-08T00:51:03;6.60;68.60
17415;DHT22;8825;48.086;16.426;2024-03-08T00:53:30;6.60;68.80
17415;DHT22;8825;48.086;16.426;2024-03-08T00:55:58;6.60;68.90
17415;DHT22;8825;48.086;16.426;2024-03-08T00:58:25;6.60;69.20
17415;DHT22;8825;48.086;16.426;2024-03-08T01:00:53;6.60;69.20
17415;DHT22;8825;48.086;16.426;2024-03-08T01:03:21;6.60;69.30
17415;DHT22;8825;48.086;16.426;2024-03-08T01:05:48;6.50;69.40
17415;DHT22;8825;48.086;16.426;2024-03-08T01:08:15;6.50;69.50
17415;DHT22;8825;48.086;16.426;2024-03-08T01:10:43;6.50;69.60
17415;DHT22;8825;48.086;16.426;2024-03-08T01:13:11;6.50;69.80
17415;DHT22;8825;48.086;16.426;2024-03-08T01:15:38;6.60;69.80
17415;DHT22;8825;48.086;16.426;2024-03-08T01:18:08;6.60;70.00
17415;DHT22;8825;48.086;16.426;2024-03-08T01:20:36;6.60;70.20
17415;DHT22;8825;48.086;16.426;2024-03-08T01:23:04;6.60;70.30
17415;DHT22;8825;48.086;16.426;2024-03-08T01:25:34;6.60;70.30
17415;DHT22;8825;48.086;16.426;2024-03-08T01:28:01;6.60;70.30
17415;DHT22;8825;48.086;16.426;2024-03-08T01:30:29;6.60;70.50
17415;DHT22;8825;48.086;16.426;2024-03-08T01:32:58;6.50;70.50
17415;DHT22;8825;48.086;16.426;2024-03-08T01:35:26;6.60;70.70
17415;DHT22;8825;48.086;16.426;2024-03-08T01:37:53;6.60;70.90
17415;DHT22;8825;48.086;16.426;2024-03-08T01:40:21;6.50;70.90
17415;DHT22;8825;48.086;16.426;2024-03-08T01:42:49;6.60;70.90
17415;DHT22;8825;48.086;16.426;2024-03-08T01:45:16;6.60;71.00
17415;DHT22;8825;48.086;16.426;2024-03-08T01:47:44;6.60;71.90
17415;DHT22;8825;48.086;16.426;2024-03-08T01:50:13;6.60;71.10
17415;DHT22;8825;48.086;16.426;2024-03-08T01:52:42;6.50;71.10
17415;DHT22;8825;48.086;16.426;2024-03-08T01:55:10;6.50;71.00
17415;DHT22;8825;48.086;16.426;2024-03-08T01:57:39;6.50;71.10
17415;DHT22;8825;48.086;16.426;2024-03-08T02:00:07;6.50;71.20
17415;DHT22;8825;48.086;16.426;2024-03-08T02:02:37;6.50;71.10
17415;DHT22;8825;48.086;16.426;2024-03-08T02:05:05;6.50;71.30
17415;DHT22;8825;48.086;16.426;2024-03-08T02:07:33;6.40;71.20
17415;DHT22;8825;48.086;16.426;2024-03-08T02:10:02;6.40;71.40
17415;DHT22;8825;48.086;16.426;2024-03-08T02:12:30;6.40;71.30
17415;DHT22;8825;48.086;16.426;2024-03-08T02:14:57;6.30;70.60
17415;DHT22;8825;48.086;16.426;2024-03-08T02:17:25;6.30;71.40
17415;DHT22;8825;48.086;16.426;2024-03-08T02:19:52;6.30;71.30
17415;DHT22;8825;48.086;16.426;2024-03-08T02:22:20;6.30;71.50
17415;DHT22;8825;48.086;16.426;2024-03-08T02:24:47;6.20;71.60
17415;DHT22;8825;48.086;16.426;2024-03-08T02:27:15;6.30;71.60
17415;DHT22;8825;48.086;16.426;2024-03-08T02:29:45;6.30;71.80
17415;DHT22;8825;48.086;16.426;2024-03-08T02:32:13;6.30;71.70
17415;DHT22;8825;48.086;16.426;2024-03-08T02:34:40;6.30;71.90
17415;DHT22;8825;48.086;16.426;2024-03-08T02:37:08;6.30;71.90
17415;DHT22;8825;48.086;16.426;2024-03-08T02:39:35;6.30;71.90
17415;DHT22;8825;48.086;16.426;2024-03-08T02:42:03;6.30;71.90
17415;DHT22;8825;48.086;16.426;2024-03-08T02:44:30;6.30;71.90
17415;DHT22;8825;48.086;16.426;2024-03-08T02:47:00;6.30;72.00
17415;DHT22;8825;48.086;16.426;2024-03-08T02:49:27;6.30;71.90
17415;DHT22;8825;48.086;16.426;2024-03-08T02:51:55;6.30;71.90
17415;DHT22;8825;48.086;16.426;2024-03-08T02:54:23;6.30;72.80
17415;DHT22;8825;48.086;16.426;2024-03-08T02:56:51;6.30;72.10
17415;DHT22;8825;48.086;16.426;2024-03-08T02:59:18;6.30;72.10
17415;DHT22;8825;48.086;16.426;2024-03-08T03:01:46;6.30;72.20
17415;DHT22;8825;48.086;16.426;2024-03-08T03:04:13;6.30;72.20
17415;DHT22;8825;48.086;16.426;2024-03-08T03:06:41;6.30;72.30
17415;DHT22;8825;48.086;16.426;2024-03-08T03:09:08;6.30;72.20
17415;DHT22;8825;48.086;16.426;2024-03-08T03:11:37;6.30;72.30
17415;DHT22;8825;48.086;16.426;2024-03-08T03:14:04;6.30;72.20
17415;DHT22;8825;48.086;16.426;2024-03-08T03:16:33;6.30;72.20
17415;DHT22;8825;48.086;16.426;2024-03-08T03:19:01;6.30;72.20
17415;DHT22;8825;48.086;16.426;2024-03-08T03:21:30;6.30;72.30
17415;DHT22;8825;48.086;16.426;2024-03-08T03:23:58;6.30;72.50
17415;DHT22;8825;48.086;16.426;2024-03-08T03:26:25;6.30;72.60
17415;DHT22;8825;48.086;16.426;2024-03-08T03:28:53;6.30;73.00
17415;DHT22;8825;48.086;16.426;2024-03-08T03:31:20;6.40;72.70
17415;DHT22;8825;48.086;16.426;2024-03-08T03:33:50;6.40;72.80
17415;DHT22;8825;48.086;16.426;2024-03-08T03:36:20;6.30;72.80
17415;DHT22;8825;48.086;16.426;2024-03-08T03:38:48;6.40;72.80
17415;DHT22;8825;48.086;16.426;2024-03-08T03:41:15;6.40;72.90
17415;DHT22;8825;48.086;16.426;2024-03-08T03:43:44;6.40;72.90
17415;DHT22;8825;48.086;16.426;2024-03-08T03:46:11;6.40;72.70
17415;DHT22;8825;48.086;16.426;2024-03-08T03:48:39;6.40;72.80
17415;DHT22;8825;48.086;16.426;2024-03-08T03:51:08;6.40;72.80
17415;DHT22;8825;48.086;16.426;2024-03-08T03:53:36;6.40;72.90
17415;DHT22;8825;48.086;16.426;2024-03-08T03:56:04;6.40;72.90
17415;DHT22;8825;48.086;16.426;2024-03-08T03:58:33;6.40;73.00
17415;DHT22;8825;48.086;16.426;2024-03-08T04:01:01;6.40;72.90
17415;DHT22;8825;48.086;16.426;2024-03-08T04:03:28;6.40;73.00
17415;DHT22;8825;48.086;16.426;2024-03-08T04:05:56;6.40;73.10
17415;DHT22;8825;48.086;16.426;2024-03-08T04:08:23;6.40;73.30
17415;DHT22;8825;48.086;16.426;2024-03-08T04:10:51;6.40;72.60
17415;DHT22;8825;48.086;16.426;2024-03-08T04:13:18;6.40;73.30
17415;DHT22;8825;48.086;16.426;2024-03-08T04:15:47;6.40;73.10
17415;DHT22;8825;48.086;16.426;2024-03-08T04:18:15;6.40;73.20
17415;DHT22;8825;48.086;16.426;2024-03-08T04:20:42;6.40;73.30
17415;DHT22;8825;48.086;16.426;2024-03-08T04:23:10;6.40;73.30
17415;DHT22;8825;48.086;16.426;2024-03-08T04:25:37;6.40;73.30
17415;DHT22;8825;48.086;16.426;2024-03-08T04:28:05;6.40;73.30
17415;DHT22;8825;48.086;16.426;2024-03-08T04:30:34;6.40;73.30
17415;DHT22;8825;48.086;16.426;2024-03-08T04:33:03;6.40;73.20
17415;DHT22;8825;48.086;16.426;2024-03-08T04:35:31;6.40;73.20
17415;DHT22;8825;48.086;16.426;2024-03-08T04:37:58;6.30;73.10
17415;DHT22;8825;48.086;16.426;2024-03-08T04:40:26;6.40;73.10
17415;DHT22;8825;48.086;16.426;2024-03-08T04:42:53;6.40;73.10
17415;DHT22;8825;48.086;16.426;2024-03-08T04:45:21;6.30;73.10
17415;DHT22;8825;48.086;16.426;2024-03-08T04:47:48;6.40;73.30
17415;DHT22;8825;48.086;16.426;2024-03-08T04:50:16;6.40;73.30
17415;DHT22;8825;48.086;16.426;2024-03-08T04:52:44;6.40;73.20
17415;DHT22;8825;48.086;16.426;2024-03-08T04:55:12;6.40;73.30
17415;DHT22;8825;48.086;16.426;2024-03-08T04:57:40;6.40;73.10
17415;DHT22;8825;48.086;16.426;2024-03-08T05:00:10;6.40;73.30
17415;DHT22;8825;48.086;16.426;2024-03-08T05:02:38;6.40;73.30
17415;DHT22;8825;48.086;16.426;2024-03-08T05:05:06;6.40;73.30
17415;DHT22;8825;48.086;16.426;2024-03-08T05:07:35;6.40;73.30
17415;DHT22;8825;48.086;16.426;2024-03-08T05:10:03;6.50;73.40
17415;DHT22;8825;48.086;16.426;2024-03-08T05:12:30;6.40;73.40
17415;DHT22;8825;48.086;16.426;2024-03-08T05:14:58;6.40;73.40
17415;DHT22;8825;48.086;16.426;2024-03-08T05:17:26;6.50;73.40
17415;DHT22;8825;48.086;16.426;2024-03-08T05:19:54;6.50;73.50
17415;DHT22;8825;48.086;16.426;2024-03-08T05:22:22;6.50;73.60
17415;DHT22;8825;48.086;16.426;2024-03-08T05:24:49;6.50;73.40
17415;DHT22;8825;48.086;16.426;2024-03-08T05:27:17;6.50;73.30
17415;DHT22;8825;48.086;16.426;2024-03-08T05:29:44;6.40;73.30
17415;DHT22;8825;48.086;16.426;2024-03-08T05:32:12;6.40;73.30
17415;DHT22;8825;48.086;16.426;2024-03-08T05:34:40;6.40;73.40
17415;DHT22;8825;48.086;16.426;2024-03-08T05:37:08;6.40;73.50
17415;DHT22;8825;48.086;16.426;2024-03-08T05:39:35;6.40;73.40
17415;DHT22;8825;48.086;16.426;2024-03-08T05:42:03;6.40;73.40
17415;DHT22;8825;48.086;16.426;2024-03-08T05:44:31;6.40;73.60
17415;DHT22;8825;48.086;16.426;2024-03-08T05:46:58;6.40;73.50
17415;DHT22;8825;48.086;16.426;2024-03-08T05:49:26;6.40;72.90
17415;DHT22;8825;48.086;16.426;2024-03-08T05:51:53;6.40;73.50
17415;DHT22;8825;48.086;16.426;2024-03-08T05:54:21;6.50;73.60
17415;DHT22;8825;48.086;16.426;2024-03-08T05:56:50;6.50;73.60
17415;DHT22;8825;48.086;16.426;2024-03-08T05:59:19;6.50;73.70
17415;DHT22;8825;48.086;16.426;2024-03-08T06:01:47;6.50;73.50
17415;DHT22;8825;48.086;16.426;2024-03-08T06:04:15;6.50;73.40
17415;DHT22;8825;48.086;16.426;2024-03-08T06:06:44;6.50;73.40
17415;DHT22;8825;48.086;16.426;2024-03-08T06:09:12;6.60;73.40
17415;DHT22;8825;48.086;16.426;2024-03-08T06:11:41;6.50;73.30
17415;DHT22;8825;48.086;16.426;2024-03-08T06:14:09;6.50;73.30
17415;DHT22;8825;48.086;16.426;2024-03-08T06:16:36;6.50;73.30
17415;DHT22;8825;48.086;16.426;2024-03-08T06:19:05;6.50;73.50
17415;DHT22;8825;48.086;16.426;2024-03-08T06:21:32;6.50;74.30
17415;DHT22;8825;48.086;16.426;2024-03-08T06:24:00;6.60;73.60
17415;DHT22;8825;48.086;16.426;2024-03-08T06:26:27;6.60;73.40
17415;DHT22;8825;48.086;16.426;2024-03-08T06:28:56;6.60;73.40
17415;DHT22;8825;48.086;16.426;2024-03-08T06:31:25;6.60;73.30
17415;DHT22;8825;48.086;16.426;2024-03-08T06:33:52;6.60;73.20
17415;DHT22;8825;48.086;16.426;2024-03-08T06:36:21;6.60;73.90
17415;DHT22;8825;48.086;16.426;2024-03-08T06:38:49;6.70;73.30
17415;DHT22;8825;48.086;16.426;2024-03-08T06:41:17;6.70;73.30
17415;DHT22;8825;48.086;16.426;2024-03-08T06:43:46;6.60;73.10
17415;DHT22;8825;48.086;16.426;2024-03-08T06:46:18;6.60;73.10
17415;DHT22;8825;48.086;16.426;2024-03-08T06:48:47;6.60;73.10
17415;DHT22;8825;48.086;16.426;2024-03-08T06:51:15;6.60;73.00
17415;DHT22;8825;48.086;16.426;2024-03-08T06:53:43;6.60;73.10
17415;DHT22;8825;48.086;16.426;2024-03-08T06:56:11;6.50;72.80
17415;DHT22;8825;48.086;16.426;2024-03-08T06:58:38;6.50;72.90
17415;DHT22;8825;48.086;16.426;2024-03-08T07:01:06;6.60;72.90
17415;DHT22;8825;48.086;16.426;2024-03-08T07:03:35;6.60;72.90
17415;DHT22;8825;48.086;16.426;2024-03-08T07:06:05;6.60;73.00
17415;DHT22;8825;48.086;16.426;2024-03-08T07:08:34;6.70;72.90
17415;DHT22;8825;48.086;16.426;2024-03-08T07:11:01;6.70;72.90
17415;DHT22;8825;48.086;16.426;2024-03-08T07:13:30;6.80;72.90
17415;DHT22;8825;48.086;16.426;2024-03-08T07:15:58;6.80;72.80
17415;DHT22;8825;48.086;16.426;2024-03-08T07:18:27;6.80;72.80
17415;DHT22;8825;48.086;16.426;2024-03-08T07:20:56;6.80;72.80
17415;DHT22;8825;48.086;16.426;2024-03-08T07:23:23;6.90;72.70
17415;DHT22;8825;48.086;16.426;2024-03-08T07:26:09;6.90;72.60
17415;DHT22;8825;48.086;16.426;2024-03-08T07:28:37;6.90;72.50
17415;DHT22;8825;48.086;16.426;2024-03-08T07:31:04;6.90;72.50
17415;DHT22;8825;48.086;16.426;2024-03-08T07:33:45;7.00;72.50
17415;DHT22;8825;48.086;16.426;2024-03-08T07:36:13;7.00;72.70
17415;DHT22;8825;48.086;16.426;2024-03-08T07:38:41;7.00;72.60
17415;DHT22;8825;48.086;16.426;2024-03-08T07:41:09;7.10;72.70
17415;DHT22;8825;48.086;16.426;2024-03-08T07:43:36;7.10;72.60
17415;DHT22;8825;48.086;16.426;2024-03-08T07:46:04;7.10;72.40
17415;DHT22;8825;48.086;16.426;2024-03-08T07:48:31;7.20;72.60
17415;DHT22;8825;48.086;16.426;2024-03-08T07:50:59;7.20;73.30
17415;DHT22;8825;48.086;16.426;2024-03-08T07:53:26;7.20;72.10
17415;DHT22;8825;48.086;16.426;2024-03-08T07:55:54;7.10;71.80
17415;DHT22;8825;48.086;16.426;2024-03-08T07:58:21;7.00;72.00
17415;DHT22;8825;48.086;16.426;2024-03-08T08:00:50;6.90;72.90
17415;DHT22;8825;48.086;16.426;2024-03-08T08:03:17;6.90;72.50
17415;DHT22;8825;48.086;16.426;2024-03-08T08:05:47;6.90;72.60
17415;DHT22;8825;48.086;16.426;2024-03-08T08:08:15;6.90;72.50
17415;DHT22;8825;48.086;16.426;2024-03-08T08:10:43;6.90;72.70
17415;DHT22;8825;48.086;16.426;2024-03-08T08:13:10;6.90;72.70
17415;DHT22;8825;48.086;16.426;2024-03-08T08:15:39;6.80;72.80
17415;DHT22;8825;48.086;16.426;2024-03-08T08:18:07;6.80;72.80
17415;DHT22;8825;48.086;16.426;2024-03-08T08:20:36;6.60;73.30
17415;DHT22;8825;48.086;16.426;2024-03-08T08:23:04;6.50;74.10
17415;DHT22;8825;48.086;16.426;2024-03-08T08:25:31;6.40;74.60
17415;DHT22;8825;48.086;16.426;2024-03-08T08:28:01;6.30;74.90
17415;DHT22;8825;48.086;16.426;2024-03-08T08:30:30;6.30;75.10
17415;DHT22;8825;48.086;16.426;2024-03-08T08:32:59;6.30;75.40
17415;DHT22;8825;48.086;16.426;2024-03-08T08:35:27;6.20;75.50
17415;DHT22;8825;48.086;16.426;2024-03-08T08:37:55;6.30;75.80
17415;DHT22;8825;48.086;16.426;2024-03-08T08:40:24;6.30;75.90
17415;DHT22;8825;48.086;16.426;2024-03-08T08:42:52;6.30;76.20
17415;DHT22;8825;48.086;16.426;2024-03-08T08:45:20;6.20;76.60
17415;DHT22;8825;48.086;16.426;2024-03-08T08:47:48;6.10;77.60
17415;DHT22;8825;48.086;16.426;2024-03-08T08:50:16;6.00;77.90
17415;DHT22;8825;48.086;16.426;2024-03-08T08:52:45;6.00;78.20
17415;DHT22;8825;48.086;16.426;2024-03-08T08:55:13;6.00;78.20
17415;DHT22;8825;48.086;16.426;2024-03-08T08:57:44;6.00;78.40
17415;DHT22;8825;48.086;16.426;2024-03-08T09:00:12;6.00;78.40
17415;DHT22;8825;48.086;16.426;2024-03-08T09:02:44;6.10;78.40
17415;DHT22;8825;48.086;16.426;2024-03-08T09:05:12;6.20;78.30
17415;DHT22;8825;48.086;16.426;2024-03-08T09:07:41;6.30;78.10
17415;DHT22;8825;48.086;16.426;2024-03-08T09:10:10;6.40;78.10
17415;DHT22;8825;48.086;16.426;2024-03-08T09:12:41;6.50;77.90
17415;DHT22;8825;48.086;16.426;2024-03-08T09:15:09;6.40;78.00
17415;DHT22;8825;48.086;16.426;2024-03-08T09:17:38;6.30;78.30
17415;DHT22;8825;48.086;16.426;2024-03-08T09:20:10;6.30;78.50
17415;DHT22;8825;48.086;16.426;2024-03-08T09:22:45;6.30;78.60
17415;DHT22;8825;48.086;16.426;2024-03-08T09:25:13;6.30;78.90
17415;DHT22;8825;48.086;16.426;2024-03-08T09:28:00;6.10;79.40
17415;DHT22;8825;48.086;16.426;2024-03-08T09:30:27;6.10;79.70
17415;DHT22;8825;48.086;16.426;2024-03-08T09:32:55;6.10;79.90
17415;DHT22;8825;48.086;16.426;2024-03-08T09:35:23;6.10;80.20
17415;DHT22;8825;48.086;16.426;2024-03-08T09:37:51;6.00;80.60
17415;DHT22;8825;48.086;16.426;2024-03-08T09:40:19;6.10;80.70
17415;DHT22;8825;48.086;16.426;2024-03-08T09:45:36;6.20;80.60
17415;DHT22;8825;48.086;16.426;2024-03-08T09:48:10;6.30;80.60
17415;DHT22;8825;48.086;16.426;2024-03-08T09:50:41;6.40;80.60
17415;DHT22;8825;48.086;16.426;2024-03-08T09:53:11;6.50;80.70
17415;DHT22;8825;48.086;16.426;2024-03-08T09:55:39;6.50;80.40
17415;DHT22;8825;48.086;16.426;2024-03-08T09:58:09;6.60;80.50
17415;DHT22;8825;48.086;16.426;2024-03-08T10:00:46;6.70;80.40
17415;DHT22;8825;48.086;16.426;2024-03-08T10:03:13;6.70;80.40
17415;DHT22;8825;48.086;16.426;2024-03-08T10:05:44;6.60;80.80
17415;DHT22;8825;48.086;16.426;2024-03-08T10:08:11;6.60;81.00
17415;DHT22;8825;48.086;16.426;2024-03-08T10:10:40;6.70;81.30
17415;DHT22;8825;48.086;16.426;2024-03-08T10:13:08;6.80;81.40
17415;DHT22;8825;48.086;16.426;2024-03-08T10:15:39;6.90;81.40
17415;DHT22;8825;48.086;16.426;2024-03-08T10:18:07;7.00;81.70
17415;DHT22;8825;48.086;16.426;2024-03-08T10:20:35;7.20;81.60
17415;DHT22;8825;48.086;16.426;2024-03-08T10:23:03;7.50;81.60
17415;DHT22;8825;48.086;16.426;2024-03-08T10:25:32;7.90;80.60
17415;DHT22;8825;48.086;16.426;2024-03-08T10:28:02;8.10;79.60
17415;DHT22;8825;48.086;16.426;2024-03-08T10:30:30;8.20;79.00
17415;DHT22;8825;48.086;16.426;2024-03-08T10:32:58;8.30;78.70
17415;DHT22;8825;48.086;16.426;2024-03-08T10:35:26;8.40;78.00
17415;DHT22;8825;48.086;16.426;2024-03-08T10:37:55;8.40;77.20
17415;DHT22;8825;48.086;16.426;2024-03-08T10:40:28;8.60;77.00
17415;DHT22;8825;48.086;16.426;2024-03-08T10:42:58;8.70;75.70
17415;DHT22;8825;48.086;16.426;2024-03-08T10:45:37;8.70;74.90
17415;DHT22;8825;48.086;16.426;2024-03-08T10:50:36;9.10;74.50
17415;DHT22;8825;48.086;16.426;2024-03-08T10:53:06;9.50;74.50
17415;DHT22;8825;48.086;16.426;2024-03-08T10:55:34;10.20;73.80
17415;DHT22;8825;48.086;16.426;2024-03-08T10:58:03;11.10;72.30
17415;DHT22;8825;48.086;16.426;2024-03-08T11:00:31;11.60;68.70
17415;DHT22;8825;48.086;16.426;2024-03-08T11:02:58;11.50;66.20
17415;DHT22;8825;48.086;16.426;2024-03-08T11:05:40;11.30;64.80
17415;DHT22;8825;48.086;16.426;2024-03-08T11:08:18;10.90;64.20
17415;DHT22;8825;48.086;16.426;2024-03-08T11:10:53;10.90;64.10
17415;DHT22;8825;48.086;16.426;2024-03-08T11:13:42;10.70;64.10
17415;DHT22;8825;48.086;16.426;2024-03-08T11:18:59;10.30;63.40
17415;DHT22;8825;48.086;16.426;2024-03-08T11:21:34;10.30;64.20
17415;DHT22;8825;48.086;16.426;2024-03-08T11:26:35;10.50;64.50
17415;DHT22;8825;48.086;16.426;2024-03-08T11:32:15;10.50;63.70
17415;DHT22;8825;48.086;16.426;2024-03-08T11:34:48;10.50;63.70
17415;DHT22;8825;48.086;16.426;2024-03-08T11:37:21;10.50;63.70
17415;DHT22;8825;48.086;16.426;2024-03-08T11:39:53;10.50;63.80
17415;DHT22;8825;48.086;16.426;2024-03-08T11:42:29;10.50;63.80
17415;DHT22;8825;48.086;16.426;2024-03-08T11:44:57;10.50;63.70
17415;DHT22;8825;48.086;16.426;2024-03-08T11:47:24;10.40;63.70
17415;DHT22;8825;48.086;16.426;2024-03-08T11:49:52;10.40;63.80
17415;DHT22;8825;48.086;16.426;2024-03-08T11:52:20;10.40;63.80
17415;DHT22;8825;48.086;16.426;2024-03-08T11:54:54;10.40;63.80
17415;DHT22;8825;48.086;16.426;2024-03-08T11:57:24;10.30;63.80
17415;DHT22;8825;48.086;16.426;2024-03-08T11:59:55;10.30;63.90
17415;DHT22;8825;48.086;16.426;2024-03-08T12:02:27;10.40;64.10
17415;DHT22;8825;48.086;16.426;2024-03-08T12:05:00;10.40;64.10
17415;DHT22;8825;48.086;16.426;2024-03-08T12:07:31;10.50;63.80
17415;DHT22;8825;48.086;16.426;2024-03-08T12:10:23;10.40;63.40
17415;DHT22;8825;48.086;16.426;2024-03-08T12:12:53;10.40;63.20
17415;DHT22;8825;48.086;16.426;2024-03-08T12:15:23;10.40;63.30
17415;DHT22;8825;48.086;16.426;2024-03-08T12:17:52;10.30;63.20
17415;DHT22;8825;48.086;16.426;2024-03-08T12:20:24;10.30;63.20
17415;DHT22;8825;48.086;16.426;2024-03-08T12:22:54;10.20;64.10
17415;DHT22;8825;48.086;16.426;2024-03-08T12:25:31;10.20;63.50
17415;DHT22;8825;48.086;16.426;2024-03-08T12:28:12;10.20;63.50
17415;DHT22;8825;48.086;16.426;2024-03-08T12:30:49;10.20;63.50
17415;DHT22;8825;48.086;16.426;2024-03-08T12:33:18;10.20;63.50
17415;DHT22;8825;48.086;16.426;2024-03-08T12:35:53;10.20;63.50
17415;DHT22;8825;48.086;16.426;2024-03-08T12:38:21;10.20;63.40
17415;DHT22;8825;48.086;16.426;2024-03-08T12:40:59;10.20;63.20
17415;DHT22;8825;48.086;16.426;2024-03-08T12:43:27;10.20;63.20
17415;DHT22;8825;48.086;16.426;2024-03-08T12:45:56;10.20;63.20
17415;DHT22;8825;48.086;16.426;2024-03-08T12:48:24;10.20;63.30
17415;DHT22;8825;48.086;16.426;2024-03-08T12:50:52;10.20;63.20
17415;DHT22;8825;48.086;16.426;2024-03-08T12:53:20;10.20;63.20
17415;DHT22;8825;48.086;16.426;2024-03-08T12:55:49;10.20;63.00
17415;DHT22;8825;48.086;16.426;2024-03-08T12:58:17;10.20;62.70
17415;DHT22;8825;48.086;16.426;2024-03-08T13:00:46;10.10;62.60
17415;DHT22;8825;48.086;16.426;2024-03-08T13:03:13;10.10;62.70
17415;DHT22;8825;48.086;16.426;2024-03-08T13:05:41;10.20;62.70
17415;DHT22;8825;48.086;16.426;2024-03-08T13:08:09;10.20;62.30
17415;DHT22;8825;48.086;16.426;2024-03-08T13:10:42;10.30;62.10
17415;DHT22;8825;48.086;16.426;2024-03-08T13:13:12;10.40;62.00
17415;DHT22;8825;48.086;16.426;2024-03-08T13:15:41;10.50;61.80
17415;DHT22;8825;48.086;16.426;2024-03-08T13:18:09;10.60;61.50
17415;DHT22;8825;48.086;16.426;2024-03-08T13:20:37;10.60;61.10
17415;DHT22;8825;48.086;16.426;2024-03-08T13:23:05;10.60;60.90
17415;DHT22;8825;48.086;16.426;2024-03-08T13:25:34;10.70;60.90
17415;DHT22;8825;48.086;16.426;2024-03-08T13:28:03;10.70;59.50
17415;DHT22;8825;48.086;16.426;2024-03-08T13:30:32;10.70;58.70
17415;DHT22;8825;48.086;16.426;2024-03-08T13:33:00;10.60;59.20
17415;DHT22;8825;48.086;16.426;2024-03-08T13:35:27;10.60;58.70
17415;DHT22;8825;48.086;16.426;2024-03-08T13:37:56;10.70;58.50
17415;DHT22;8825;48.086;16.426;2024-03-08T13:40:24;10.60;57.80
17415;DHT22;8825;48.086;16.426;2024-03-08T13:42:52;10.50;57.90
17415;DHT22;8825;48.086;16.426;2024-03-08T13:45:19;10.50;57.80
17415;DHT22;8825;48.086;16.426;2024-03-08T13:47:50;10.50;57.80
17415;DHT22;8825;48.086;16.426;2024-03-08T13:50:18;10.50;57.60
17415;DHT22;8825;48.086;16.426;2024-03-08T13:52:48;10.60;57.60
17415;DHT22;8825;48.086;16.426;2024-03-08T13:55:19;10.60;57.50
17415;DHT22;8825;48.086;16.426;2024-03-08T13:57:48;10.60;57.50
17415;DHT22;8825;48.086;16.426;2024-03-08T14:00:18;10.60;57.60
17415;DHT22;8825;48.086;16.426;2024-03-08T14:02:47;10.60;57.50
17415;DHT22;8825;48.086;16.426;2024-03-08T14:05:15;10.70;57.70
17415;DHT22;8825;48.086;16.426;2024-03-08T14:07:44;10.80;57.60
17415;DHT22;8825;48.086;16.426;2024-03-08T14:10:13;10.80;57.50
17415;DHT22;8825;48.086;16.426;2024-03-08T14:12:41;10.70;56.30
17415;DHT22;8825;48.086;16.426;2024-03-08T14:15:10;10.60;56.30
17415;DHT22;8825;48.086;16.426;2024-03-08T14:17:39;10.60;56.50
17415;DHT22;8825;48.086;16.426;2024-03-08T14:20:07;10.60;56.50
17415;DHT22;8825;48.086;16.426;2024-03-08T14:22:35;10.60;56.60
17415;DHT22;8825;48.086;16.426;2024-03-08T14:25:03;10.60;56.80
17415;DHT22;8825;48.086;16.426;2024-03-08T14:27:31;10.60;56.80
17415;DHT22;8825;48.086;16.426;2024-03-08T14:29:59;10.70;57.00
17415;DHT22;8825;48.086;16.426;2024-03-08T14:32:27;10.70;57.50
17415;DHT22;8825;48.086;16.426;2024-03-08T14:34:55;10.70;56.50
17415;DHT22;8825;48.086;16.426;2024-03-08T14:37:22;10.70;56.50
17415;DHT22;8825;48.086;16.426;2024-03-08T14:39:51;10.70;56.70
17415;DHT22;8825;48.086;16.426;2024-03-08T14:42:19;10.80;56.70
17415;DHT22;8825;48.086;16.426;2024-03-08T14:44:49;10.90;56.70
17415;DHT22;8825;48.086;16.426;2024-03-08T14:47:18;11.00;56.70
17415;DHT22;8825;48.086;16.426;2024-03-08T14:49:45;10.90;56.80
17415;DHT22;8825;48.086;16.426;2024-03-08T14:52:15;11.00;56.80
17415;DHT22;8825;48.086;16.426;2024-03-08T14:54:55;11.00;56.80
17415;DHT22;8825;48.086;16.426;2024-03-08T14:57:25;11.00;56.90
17415;DHT22;8825;48.086;16.426;2024-03-08T14:59:53;11.10;57.00
17415;DHT22;8825;48.086;16.426;2024-03-08T15:02:20;11.10;57.00
17415;DHT22;8825;48.086;16.426;2024-03-08T15:04:48;11.00;56.80
17415;DHT22;8825;48.086;16.426;2024-03-08T15:07:26;10.90;56.80
17415;DHT22;8825;48.086;16.426;2024-03-08T15:09:56;10.90;56.70
17415;DHT22;8825;48.086;16.426;2024-03-08T15:12:23;10.90;56.80
17415;DHT22;8825;48.086;16.426;2024-03-08T15:14:53;10.80;56.70
17415;DHT22;8825;48.086;16.426;2024-03-08T15:17:22;10.80;56.70
17415;DHT22;8825;48.086;16.426;2024-03-08T15:19:50;10.70;56.60
17415;DHT22;8825;48.086;16.426;2024-03-08T15:22:20;10.70;56.40
17415;DHT22;8825;48.086;16.426;2024-03-08T15:24:47;10.60;56.20
17415;DHT22;8825;48.086;16.426;2024-03-08T15:27:15;10.50;56.70
17415;DHT22;8825;48.086;16.426;2024-03-08T15:29:42;10.50;56.30
17415;DHT22;8825;48.086;16.426;2024-03-08T15:32:11;10.40;56.40
17415;DHT22;8825;48.086;16.426;2024-03-08T15:34:42;10.30;56.50
17415;DHT22;8825;48.086;16.426;2024-03-08T15:37:10;10.20;56.60
17415;DHT22;8825;48.086;16.426;2024-03-08T15:39:39;10.20;56.20
17415;DHT22;8825;48.086;16.426;2024-03-08T15:42:07;10.10;56.20
17415;DHT22;8825;48.086;16.426;2024-03-08T15:44:35;10.00;56.00
17415;DHT22;8825;48.086;16.426;2024-03-08T15:47:02;10.00;55.80
17415;DHT22;8825;48.086;16.426;2024-03-08T15:49:30;9.90;55.80
17415;DHT22;8825;48.086;16.426;2024-03-08T15:51:58;9.90;55.80
17415;DHT22;8825;48.086;16.426;2024-03-08T15:54:25;9.90;55.90
17415;DHT22;8825;48.086;16.426;2024-03-08T15:56:53;9.90;55.80
17415;DHT22;8825;48.086;16.426;2024-03-08T15:59:20;9.80;55.90
17415;DHT22;8825;48.086;16.426;2024-03-08T16:01:48;9.80;56.00
17415;DHT22;8825;48.086;16.426;2024-03-08T16:04:17;9.80;55.90
17415;DHT22;8825;48.086;16.426;2024-03-08T16:06:46;9.80;56.40